Elk City, OK (73644)

8:07 AM CDT on July 26, 2016 (GMT -0500)
Clinton-Sherman | | Change Station

Elev 1923 ft 35.34 °N, 99.20 °W | Updated 14 minutes ago

Clear
Clear
75 °F
Feels Like 75 °F
N
5
Wind Variable Wind from ESE

Today
High -- | Low -- °F
--% Chance of Precip.
Yesterday
High -- | Low -- °F
Precip. -- in
Pressure 29.97 in
Visibility 8.0 miles
Clouds Clear
Dew Point 71 °F
Humidity 87%
Rainfall 0.00 in
Snow Depth Not available.
6:42 AM 8:45 PM
Waning Gibbous, 55% visible
METAR KCSM 261253Z AUTO 11004KT 8SM CLR 24/22 A3005 RMK AO2 SLP148 T02390217
Pressure 29.97 in
Visibility 8.0 miles
Clouds Clear
Dew Point 71 °F
Humidity 87%
Rainfall 0.00 in
Snow Depth Not available.
6:42 AM 8:45 PM
Waning Gibbous, 55% visible
METAR KCSM 261253Z AUTO 11004KT 8SM CLR 24/22 A3005 RMK AO2 SLP148 T02390217

10-Day Weather Forecast

Almanac

Astronomy

Jul. 26, 2016 Rise Set
Actual Time
Civil Twilight
Nautical Twilight
Astronomical Twilight
Moon
Length of Visible Light
Length of Day
Tomorrow will be .
, % of the Moon is Illuminated

Today's Extremes

State Highs State Lows

Community

WunderPhotos

Upload Photos

1,927,580 photos uploaded!

WunderBlog® & News

Nearby

Air Quality

  Air Quality AQ Index Pollutant
Not available.

Snow Depth

Station Depth Elevation

Earthquake Activity

City Distance Mag. Time & Date
Minimum magnitude displayed is 2.5.

Coastal Water Temperatures

Place Temperature

Stations

Nearby Weather Stations

Station Location Temp. Windchill Dew Point Humidity Wind Precip. Elev Updated Type
                   

Watches & Warnings

There are currently no watches in effect.